South Newbury, New Hampshire
Current Conditions -  °F | °C
As of 1:51 AM on Sunday 26 Oct 2014 (Local Time) from KCON Reporting Station
Clear Clear  
Wind Chill: 45°   Ceiling: Unl
Heat Index: 47°   Visibility: 10mi
Dew Point: 43°   Wind: 5mph
Humidity: 86%   Direction: 140°SE
Pressure: 29.44"   Gusts: NA
Location:  43.3°N, 72°W
Report Text: KCON 260551Z AUTO 14004KT 10SM CLR 08/06 A2944 RMK AO2 SLP971 T00830061 10122 20083 56017
Loading
Personal Weather Stations






























Interactive Weather Map
Tropical Storm Tracking
New forecast layout! Learn more

10-Day Weather Forecast

Advertisements
Track Severe Weather on mobile